Etusivu
METAR-TAF:

METAR-TAF

Lentoasemat :

Tabarka, Tunisia

Leveyspiiri: 36-57N, Pituuspiiri: 008-45E, korkeus merenpinnasta: 20 m

Tämänhetkinen sää

Tämä raportti tehtiin 49 minuuttia sitten, kello 22.00 UTC
Tuuli 3 kn idästä/kaakosta
Lämpötila 14°C
Kosteus 72%
Ilmanpaine 1016 hPa
Näkyvyys 10 km tai enemmän
Muutamia pilviä 2000 ft:n korkeudessa

METAR: DTKA 152200Z 12003KT 9999 FEW020 14/09 Q1016 NOSIG

Aika: 23:49 (22:49 UTC)

Sääennuste

Tämä raportti tehtiin 1 tunti ja 49 minuuttia sitten, kello 21.00 UTC
Ennuste voimassa 15. päivästä klo 22 UTC - 16. päivään klo 07 UTC
Tuuli 4 kn idästä
Näkyvyys 10 km tai enemmän
Muutamia pilviä 2000 ft:n korkeudessa
Tulossa
15. päivästä klo 23 UTC - 16. päivään klo 01 UTC
Tuuli 4 kn etelästä

TAF: DTKA 152100Z 1522/1607 08004KT 9999 FEW020 BECMG 1523/1601 17004KT

Säähavainnot ja -ennusteet yli 4000 lentoasemalta (METAR- ja TAF-raportit).

Käytössä olevat sääasemat on merkitty karttaan keltaisilla ja punaisilla pisteillä.

Aseta hiiri pisteen päälle nähdäksesi sääaseman nimen.

Klikkaa sitten nähdäksesi säähavainnot ja -ennusteet.

Kartan vaihtaminen: klikkaa mustalla rastilla varustettuja vihreitä pisteitä, niin voit zoomata sisään; viivalla varustettua vihreää pistettä, niin voit zoomata ulos tai vihreitä nuolia, niin pääset viereisille kartoille.


METAR-TAF: